Terminal Aerodrome Forecast
Issued by NWS Wilmington, OH

Home | Current Version | Previous Version | Text Only | Print | Product List | Glossary On
Versions: 1 2 3 4 5 6 7 8 9 10 11 12 13 14 15 16 17 18 19 20 21 22 23 24 25 26
000
FTUS41 KILN 292017 AAA
TAFCMH
TAF AMD
KCMH 292017Z 2920/3018 22006KT P6SM VCSH SCT035 BKN050
      TEMPO 2920/2922 5SM -RA BKN035
     FM300000 00000KT P6SM BKN035 OVC150
     FM300800 00000KT 4SM BR SCT002 BKN250
      TEMPO 3009/3012 2SM BR
     FM301300 23005KT P6SM BKN035=

USA.gov is the U.S. government's official web portal to all federal, state and local government web resources and services.